createdAt,value
2022-08-20T00:22:51.998Z,18
2022-08-20T00:51:44.139Z,18
2022-08-20T01:20:34.203Z,20
2022-08-20T01:49:24.668Z,18
2022-08-20T02:18:02.548Z,20
2022-08-20T02:46:21.993Z,20
2022-08-20T03:15:17.453Z,20
2022-08-20T03:43:19.810Z,19
2022-08-20T04:11:43.944Z,20
2022-08-20T04:40:01.194Z,22
2022-08-20T05:08:19.561Z,22
2022-08-20T05:36:55.406Z,22
2022-08-20T06:05:16.897Z,21
2022-08-20T06:34:08.720Z,18
2022-08-20T07:03:08.177Z,19
2022-08-20T07:31:59.832Z,14
2022-08-20T08:00:53.751Z,14
2022-08-20T08:29:26.019Z,7
2022-08-20T08:58:17.542Z,10
2022-08-20T09:27:09.404Z,8
2022-08-20T09:56:20.912Z,7
2022-08-20T10:25:16.387Z,7
2022-08-20T10:53:59.098Z,7
2022-08-20T11:23:12.196Z,7
2022-08-20T11:52:16.039Z,5
2022-08-20T12:20:54.965Z,3
2022-08-20T12:50:01.149Z,3
2022-08-20T13:18:50.208Z,4
2022-08-20T13:47:39.959Z,3
2022-08-20T14:16:39.805Z,2
2022-08-20T14:45:33.033Z,2
2022-08-20T15:13:46.267Z,2
2022-08-20T15:42:08.394Z,2
2022-08-20T16:10:26.446Z,4
2022-08-20T16:38:46.277Z,4
2022-08-20T17:07:11.739Z,4
2022-08-20T17:35:36.279Z,4
2022-08-20T18:04:23.317Z,4
2022-08-20T18:33:13.928Z,4
2022-08-20T19:02:05.744Z,8
2022-08-20T19:30:53.395Z,7
2022-08-20T19:59:49.781Z,6
2022-08-20T20:28:38.511Z,6
2022-08-20T20:57:41.635Z,5
2022-08-20T21:26:39.741Z,5
2022-08-20T21:54:58.380Z,5
2022-08-20T22:23:22.705Z,5
2022-08-20T22:51:34.619Z,5
2022-08-20T23:19:55.130Z,5
2022-08-20T23:48:08.278Z,6
